sensor_id;sensor_type;location;lat;lon;timestamp;P1;durP1;ratioP1;P2;durP2;ratioP2
47113;SDS011;32867;51.556;6.832;2023-03-01T00:03:00;6.30;;;4.30;;
47113;SDS011;32867;51.556;6.832;2023-03-01T00:08:00;6.47;;;4.45;;
47113;SDS011;32867;51.556;6.832;2023-03-01T00:13:01;6.07;;;4.22;;
47113;SDS011;32867;51.556;6.832;2023-03-01T00:18:02;6.25;;;4.30;;
47113;SDS011;32867;51.556;6.832;2023-03-01T00:23:03;6.35;;;4.47;;
47113;SDS011;32867;51.556;6.832;2023-03-01T00:28:03;6.88;;;4.30;;
47113;SDS011;32867;51.556;6.832;2023-03-01T00:33:04;6.80;;;4.22;;
47113;SDS011;32867;51.556;6.832;2023-03-01T00:38:05;7.00;;;4.20;;
47113;SDS011;32867;51.556;6.832;2023-03-01T00:43:06;6.55;;;4.38;;
47113;SDS011;32867;51.556;6.832;2023-03-01T00:48:06;5.65;;;4.35;;
47113;SDS011;32867;51.556;6.832;2023-03-01T00:53:07;6.03;;;4.05;;
47113;SDS011;32867;51.556;6.832;2023-03-01T00:58:08;6.32;;;4.32;;
47113;SDS011;32867;51.556;6.832;2023-03-01T01:03:08;6.70;;;4.63;;
47113;SDS011;32867;51.556;6.832;2023-03-01T01:08:09;7.50;;;4.55;;
47113;SDS011;32867;51.556;6.832;2023-03-01T01:13:10;6.35;;;4.65;;
47113;SDS011;32867;51.556;6.832;2023-03-01T01:18:10;7.75;;;4.38;;
47113;SDS011;32867;51.556;6.832;2023-03-01T01:23:11;7.68;;;4.60;;
47113;SDS011;32867;51.556;6.832;2023-03-01T01:28:12;8.45;;;4.63;;
47113;SDS011;32867;51.556;6.832;2023-03-01T01:33:12;6.72;;;4.20;;
47113;SDS011;32867;51.556;6.832;2023-03-01T01:38:13;7.38;;;5.10;;
47113;SDS011;32867;51.556;6.832;2023-03-01T01:43:24;6.85;;;4.38;;
47113;SDS011;32867;51.556;6.832;2023-03-01T01:48:40;7.33;;;4.90;;
47113;SDS011;32867;51.556;6.832;2023-03-01T01:53:48;8.23;;;5.03;;
47113;SDS011;32867;51.556;6.832;2023-03-01T01:58:52;8.57;;;4.85;;
47113;SDS011;32867;51.556;6.832;2023-03-01T02:03:53;8.40;;;5.00;;
47113;SDS011;32867;51.556;6.832;2023-03-01T02:08:55;7.22;;;4.80;;
47113;SDS011;32867;51.556;6.832;2023-03-01T02:13:59;6.95;;;4.85;;
47113;SDS011;32867;51.556;6.832;2023-03-01T02:19:00;6.40;;;4.18;;
47113;SDS011;32867;51.556;6.832;2023-03-01T02:24:17;9.20;;;4.88;;
47113;SDS011;32867;51.556;6.832;2023-03-01T02:29:46;6.53;;;4.50;;
47113;SDS011;32867;51.556;6.832;2023-03-01T02:34:47;7.60;;;5.25;;
47113;SDS011;32867;51.556;6.832;2023-03-01T02:39:48;7.43;;;5.13;;
47113;SDS011;32867;51.556;6.832;2023-03-01T02:44:53;7.47;;;4.80;;
47113;SDS011;32867;51.556;6.832;2023-03-01T02:49:54;7.55;;;4.85;;
47113;SDS011;32867;51.556;6.832;2023-03-01T02:55:06;7.30;;;4.63;;
47113;SDS011;32867;51.556;6.832;2023-03-01T03:00:12;7.50;;;5.18;;
47113;SDS011;32867;51.556;6.832;2023-03-01T03:05:23;7.60;;;5.05;;
47113;SDS011;32867;51.556;6.832;2023-03-01T03:10:30;6.53;;;4.47;;
47113;SDS011;32867;51.556;6.832;2023-03-01T03:15:34;9.02;;;4.78;;
47113;SDS011;32867;51.556;6.832;2023-03-01T03:20:39;7.43;;;5.28;;
47113;SDS011;32867;51.556;6.832;2023-03-01T03:25:41;8.60;;;5.05;;
47113;SDS011;32867;51.556;6.832;2023-03-01T03:30:42;7.88;;;4.78;;
47113;SDS011;32867;51.556;6.832;2023-03-01T03:35:45;7.40;;;4.88;;
47113;SDS011;32867;51.556;6.832;2023-03-01T03:45:50;7.60;;;5.40;;
47113;SDS011;32867;51.556;6.832;2023-03-01T03:50:52;8.88;;;5.25;;
47113;SDS011;32867;51.556;6.832;2023-03-01T03:55:54;7.18;;;5.22;;
47113;SDS011;32867;51.556;6.832;2023-03-01T04:00:56;8.43;;;5.00;;
47113;SDS011;32867;51.556;6.832;2023-03-01T04:05:58;6.85;;;4.75;;
47113;SDS011;32867;51.556;6.832;2023-03-01T04:11:02;7.82;;;5.03;;
47113;SDS011;32867;51.556;6.832;2023-03-01T04:16:23;6.93;;;5.47;;
47113;SDS011;32867;51.556;6.832;2023-03-01T04:21:24;7.65;;;5.25;;
47113;SDS011;32867;51.556;6.832;2023-03-01T04:26:25;7.28;;;5.30;;
47113;SDS011;32867;51.556;6.832;2023-03-01T04:31:27;9.27;;;5.78;;
47113;SDS011;32867;51.556;6.832;2023-03-01T04:36:28;7.35;;;5.28;;
47113;SDS011;32867;51.556;6.832;2023-03-01T04:41:29;9.95;;;5.70;;
47113;SDS011;32867;51.556;6.832;2023-03-01T04:46:30;7.05;;;5.40;;
47113;SDS011;32867;51.556;6.832;2023-03-01T04:51:31;7.05;;;5.30;;
47113;SDS011;32867;51.556;6.832;2023-03-01T04:56:34;9.35;;;5.60;;
47113;SDS011;32867;51.556;6.832;2023-03-01T05:01:35;9.68;;;5.28;;
47113;SDS011;32867;51.556;6.832;2023-03-01T05:06:36;8.18;;;5.78;;
47113;SDS011;32867;51.556;6.832;2023-03-01T05:11:37;6.75;;;4.68;;
47113;SDS011;32867;51.556;6.832;2023-03-01T05:16:38;8.30;;;5.82;;
47113;SDS011;32867;51.556;6.832;2023-03-01T05:21:39;8.27;;;5.85;;
47113;SDS011;32867;51.556;6.832;2023-03-01T05:27:00;7.90;;;5.65;;
47113;SDS011;32867;51.556;6.832;2023-03-01T05:32:02;7.97;;;5.75;;
47113;SDS011;32867;51.556;6.832;2023-03-01T05:37:02;7.72;;;5.70;;
47113;SDS011;32867;51.556;6.832;2023-03-01T05:42:03;7.70;;;5.53;;
47113;SDS011;32867;51.556;6.832;2023-03-01T05:47:04;9.35;;;5.60;;
47113;SDS011;32867;51.556;6.832;2023-03-01T05:52:05;8.80;;;5.82;;
47113;SDS011;32867;51.556;6.832;2023-03-01T05:57:05;11.25;;;5.82;;
47113;SDS011;32867;51.556;6.832;2023-03-01T06:02:06;9.27;;;5.70;;
47113;SDS011;32867;51.556;6.832;2023-03-01T06:07:07;8.57;;;5.60;;
47113;SDS011;32867;51.556;6.832;2023-03-01T06:12:07;8.00;;;5.72;;
47113;SDS011;32867;51.556;6.832;2023-03-01T06:17:08;8.00;;;5.90;;
47113;SDS011;32867;51.556;6.832;2023-03-01T06:22:08;8.77;;;5.70;;
47113;SDS011;32867;51.556;6.832;2023-03-01T06:27:09;10.40;;;5.95;;
47113;SDS011;32867;51.556;6.832;2023-03-01T06:32:10;8.55;;;5.70;;
47113;SDS011;32867;51.556;6.832;2023-03-01T06:37:10;8.45;;;6.28;;
47113;SDS011;32867;51.556;6.832;2023-03-01T06:42:11;10.10;;;6.30;;
47113;SDS011;32867;51.556;6.832;2023-03-01T06:47:12;9.65;;;6.03;;
47113;SDS011;32867;51.556;6.832;2023-03-01T06:52:12;9.38;;;6.15;;
47113;SDS011;32867;51.556;6.832;2023-03-01T06:57:13;8.52;;;5.63;;
47113;SDS011;32867;51.556;6.832;2023-03-01T07:02:14;9.38;;;6.32;;
47113;SDS011;32867;51.556;6.832;2023-03-01T07:07:15;9.77;;;5.70;;
47113;SDS011;32867;51.556;6.832;2023-03-01T07:12:18;11.10;;;6.95;;
47113;SDS011;32867;51.556;6.832;2023-03-01T07:17:18;8.82;;;5.72;;
47113;SDS011;32867;51.556;6.832;2023-03-01T07:22:19;9.88;;;6.32;;
47113;SDS011;32867;51.556;6.832;2023-03-01T07:27:20;10.15;;;5.90;;
47113;SDS011;32867;51.556;6.832;2023-03-01T07:32:20;8.52;;;6.07;;
47113;SDS011;32867;51.556;6.832;2023-03-01T07:37:21;8.57;;;6.07;;
47113;SDS011;32867;51.556;6.832;2023-03-01T07:42:21;10.68;;;6.93;;
47113;SDS011;32867;51.556;6.832;2023-03-01T07:47:22;11.35;;;6.60;;
47113;SDS011;32867;51.556;6.832;2023-03-01T07:52:23;8.48;;;6.15;;
47113;SDS011;32867;51.556;6.832;2023-03-01T07:57:23;10.55;;;6.55;;
47113;SDS011;32867;51.556;6.832;2023-03-01T08:02:25;9.90;;;6.53;;
47113;SDS011;32867;51.556;6.832;2023-03-01T08:07:25;9.10;;;6.20;;
47113;SDS011;32867;51.556;6.832;2023-03-01T08:12:26;8.85;;;6.28;;
47113;SDS011;32867;51.556;6.832;2023-03-01T08:17:28;9.43;;;6.55;;
47113;SDS011;32867;51.556;6.832;2023-03-01T08:22:28;9.10;;;6.82;;
47113;SDS011;32867;51.556;6.832;2023-03-01T08:27:29;7.72;;;5.57;;
47113;SDS011;32867;51.556;6.832;2023-03-01T08:32:29;7.47;;;5.63;;
47113;SDS011;32867;51.556;6.832;2023-03-01T08:37:36;7.07;;;5.07;;
47113;SDS011;32867;51.556;6.832;2023-03-01T08:42:36;7.45;;;5.10;;
47113;SDS011;32867;51.556;6.832;2023-03-01T08:47:37;7.53;;;5.60;;
47113;SDS011;32867;51.556;6.832;2023-03-01T08:52:38;7.43;;;5.75;;
47113;SDS011;32867;51.556;6.832;2023-03-01T08:57:38;7.43;;;5.53;;
47113;SDS011;32867;51.556;6.832;2023-03-01T09:02:39;8.10;;;6.05;;
47113;SDS011;32867;51.556;6.832;2023-03-01T09:07:40;8.70;;;6.20;;
47113;SDS011;32867;51.556;6.832;2023-03-01T09:12:40;8.55;;;5.80;;
47113;SDS011;32867;51.556;6.832;2023-03-01T09:17:41;8.40;;;5.50;;
47113;SDS011;32867;51.556;6.832;2023-03-01T09:22:42;8.20;;;5.28;;
47113;SDS011;32867;51.556;6.832;2023-03-01T09:27:43;7.95;;;5.32;;
47113;SDS011;32867;51.556;6.832;2023-03-01T09:32:44;8.48;;;5.60;;
47113;SDS011;32867;51.556;6.832;2023-03-01T09:37:45;7.03;;;5.50;;
47113;SDS011;32867;51.556;6.832;2023-03-01T09:42:47;8.48;;;5.20;;
47113;SDS011;32867;51.556;6.832;2023-03-01T09:47:52;7.60;;;5.10;;
47113;SDS011;32867;51.556;6.832;2023-03-01T10:09:19;6.28;;;4.60;;
47113;SDS011;32867;51.556;6.832;2023-03-01T10:19:32;5.50;;;4.15;;
47113;SDS011;32867;51.556;6.832;2023-03-01T10:24:44;5.82;;;4.07;;
47113;SDS011;32867;51.556;6.832;2023-03-01T10:35:23;5.82;;;4.05;;
47113;SDS011;32867;51.556;6.832;2023-03-01T10:40:25;5.55;;;4.03;;
47113;SDS011;32867;51.556;6.832;2023-03-01T10:50:30;7.60;;;4.55;;
47113;SDS011;32867;51.556;6.832;2023-03-01T10:55:33;5.43;;;4.15;;
47113;SDS011;32867;51.556;6.832;2023-03-01T11:00:45;5.15;;;4.00;;
47113;SDS011;32867;51.556;6.832;2023-03-01T11:05:52;4.95;;;4.00;;
47113;SDS011;32867;51.556;6.832;2023-03-01T11:16:26;5.70;;;4.10;;
47113;SDS011;32867;51.556;6.832;2023-03-01T11:21:30;6.10;;;4.03;;
47113;SDS011;32867;51.556;6.832;2023-03-01T11:26:34;4.88;;;3.70;;
47113;SDS011;32867;51.556;6.832;2023-03-01T11:36:41;4.50;;;3.22;;
47113;SDS011;32867;51.556;6.832;2023-03-01T11:41:48;5.50;;;3.70;;
47113;SDS011;32867;51.556;6.832;2023-03-01T11:52:24;4.65;;;3.65;;
47113;SDS011;32867;51.556;6.832;2023-03-01T12:13:45;5.20;;;3.75;;
47113;SDS011;32867;51.556;6.832;2023-03-01T12:29:40;5.75;;;3.60;;
47113;SDS011;32867;51.556;6.832;2023-03-01T12:50:40;4.50;;;3.50;;
47113;SDS011;32867;51.556;6.832;2023-03-01T12:55:49;4.63;;;3.45;;
47113;SDS011;32867;51.556;6.832;2023-03-01T13:06:12;5.25;;;3.88;;
47113;SDS011;32867;51.556;6.832;2023-03-01T13:11:22;4.22;;;3.17;;
47113;SDS011;32867;51.556;6.832;2023-03-01T13:16:41;5.05;;;4.10;;
47113;SDS011;32867;51.556;6.832;2023-03-01T13:21:45;4.60;;;4.00;;
47113;SDS011;32867;51.556;6.832;2023-03-01T13:32:06;5.40;;;3.88;;
47113;SDS011;32867;51.556;6.832;2023-03-01T13:37:29;5.25;;;4.35;;
47113;SDS011;32867;51.556;6.832;2023-03-01T13:42:36;6.40;;;4.22;;
47113;SDS011;32867;51.556;6.832;2023-03-01T13:47:40;5.53;;;3.50;;
47113;SDS011;32867;51.556;6.832;2023-03-01T13:57:59;6.03;;;4.18;;
47113;SDS011;32867;51.556;6.832;2023-03-01T14:08:20;6.50;;;4.85;;
47113;SDS011;32867;51.556;6.832;2023-03-01T14:18:44;5.95;;;4.68;;
47113;SDS011;32867;51.556;6.832;2023-03-01T14:23:52;5.85;;;4.68;;
47113;SDS011;32867;51.556;6.832;2023-03-01T14:28:53;6.18;;;4.63;;
47113;SDS011;32867;51.556;6.832;2023-03-01T14:33:55;5.50;;;4.50;;
47113;SDS011;32867;51.556;6.832;2023-03-01T14:38:56;5.75;;;4.68;;
47113;SDS011;32867;51.556;6.832;2023-03-01T14:44:06;5.95;;;4.70;;
47113;SDS011;32867;51.556;6.832;2023-03-01T14:49:14;5.97;;;5.10;;
47113;SDS011;32867;51.556;6.832;2023-03-01T14:54:25;6.27;;;4.97;;
47113;SDS011;32867;51.556;6.832;2023-03-01T14:59:30;6.80;;;5.63;;
47113;SDS011;32867;51.556;6.832;2023-03-01T15:04:34;8.25;;;5.43;;
47113;SDS011;32867;51.556;6.832;2023-03-01T15:09:35;6.50;;;4.97;;
47113;SDS011;32867;51.556;6.832;2023-03-01T15:14:40;6.50;;;5.15;;
47113;SDS011;32867;51.556;6.832;2023-03-01T15:19:45;7.05;;;4.80;;
47113;SDS011;32867;51.556;6.832;2023-03-01T15:24:47;7.82;;;5.10;;
47113;SDS011;32867;51.556;6.832;2023-03-01T15:29:53;8.18;;;5.85;;
47113;SDS011;32867;51.556;6.832;2023-03-01T15:35:01;8.75;;;5.40;;
47113;SDS011;32867;51.556;6.832;2023-03-01T15:40:24;7.32;;;5.38;;
47113;SDS011;32867;51.556;6.832;2023-03-01T15:45:31;7.85;;;5.50;;
47113;SDS011;32867;51.556;6.832;2023-03-01T15:50:38;7.63;;;5.45;;
47113;SDS011;32867;51.556;6.832;2023-03-01T15:55:40;8.50;;;5.57;;
47113;SDS011;32867;51.556;6.832;2023-03-01T16:00:41;7.72;;;5.57;;
47113;SDS011;32867;51.556;6.832;2023-03-01T16:05:43;6.97;;;5.05;;
47113;SDS011;32867;51.556;6.832;2023-03-01T16:10:44;7.47;;;5.45;;
47113;SDS011;32867;51.556;6.832;2023-03-01T16:15:45;7.40;;;4.97;;
47113;SDS011;32867;51.556;6.832;2023-03-01T16:20:45;8.48;;;6.10;;
47113;SDS011;32867;51.556;6.832;2023-03-01T16:25:47;8.70;;;5.95;;
47113;SDS011;32867;51.556;6.832;2023-03-01T16:30:47;8.35;;;4.78;;
47113;SDS011;32867;51.556;6.832;2023-03-01T16:35:49;8.65;;;6.10;;
47113;SDS011;32867;51.556;6.832;2023-03-01T16:40:50;7.20;;;5.28;;
47113;SDS011;32867;51.556;6.832;2023-03-01T16:45:51;9.18;;;5.43;;
47113;SDS011;32867;51.556;6.832;2023-03-01T16:50:56;8.90;;;4.90;;
47113;SDS011;32867;51.556;6.832;2023-03-01T16:56:00;7.78;;;4.97;;
47113;SDS011;32867;51.556;6.832;2023-03-01T17:01:05;8.90;;;4.63;;
47113;SDS011;32867;51.556;6.832;2023-03-01T17:06:09;7.50;;;5.43;;
47113;SDS011;32867;51.556;6.832;2023-03-01T17:11:13;9.18;;;5.32;;
47113;SDS011;32867;51.556;6.832;2023-03-01T17:16:16;8.60;;;5.18;;
47113;SDS011;32867;51.556;6.832;2023-03-01T17:21:19;8.68;;;4.68;;
47113;SDS011;32867;51.556;6.832;2023-03-01T17:26:19;7.10;;;4.38;;
47113;SDS011;32867;51.556;6.832;2023-03-01T17:31:20;9.77;;;5.40;;
47113;SDS011;32867;51.556;6.832;2023-03-01T17:36:22;7.63;;;4.90;;
47113;SDS011;32867;51.556;6.832;2023-03-01T17:41:22;7.85;;;5.07;;
47113;SDS011;32867;51.556;6.832;2023-03-01T17:46:24;7.50;;;5.13;;
47113;SDS011;32867;51.556;6.832;2023-03-01T17:51:26;9.27;;;5.28;;
47113;SDS011;32867;51.556;6.832;2023-03-01T17:56:26;8.95;;;4.90;;
47113;SDS011;32867;51.556;6.832;2023-03-01T18:01:27;9.48;;;5.88;;
47113;SDS011;32867;51.556;6.832;2023-03-01T18:06:28;9.98;;;6.32;;
47113;SDS011;32867;51.556;6.832;2023-03-01T18:11:29;9.25;;;5.78;;
47113;SDS011;32867;51.556;6.832;2023-03-01T18:16:32;11.48;;;7.28;;
47113;SDS011;32867;51.556;6.832;2023-03-01T18:21:33;10.15;;;6.30;;
47113;SDS011;32867;51.556;6.832;2023-03-01T18:26:34;9.07;;;5.60;;
47113;SDS011;32867;51.556;6.832;2023-03-01T18:31:34;9.63;;;6.10;;
47113;SDS011;32867;51.556;6.832;2023-03-01T18:36:35;12.85;;;7.30;;
47113;SDS011;32867;51.556;6.832;2023-03-01T18:41:37;10.52;;;6.20;;
47113;SDS011;32867;51.556;6.832;2023-03-01T18:46:37;9.07;;;6.10;;
47113;SDS011;32867;51.556;6.832;2023-03-01T18:51:39;9.30;;;5.65;;
47113;SDS011;32867;51.556;6.832;2023-03-01T18:56:40;8.10;;;5.43;;
47113;SDS011;32867;51.556;6.832;2023-03-01T19:01:41;9.65;;;5.90;;
47113;SDS011;32867;51.556;6.832;2023-03-01T19:06:42;9.35;;;5.63;;
47113;SDS011;32867;51.556;6.832;2023-03-01T19:11:42;9.23;;;5.72;;
47113;SDS011;32867;51.556;6.832;2023-03-01T19:16:43;10.73;;;6.70;;
47113;SDS011;32867;51.556;6.832;2023-03-01T19:21:44;8.98;;;5.32;;
47113;SDS011;32867;51.556;6.832;2023-03-01T19:26:44;8.52;;;5.72;;
47113;SDS011;32867;51.556;6.832;2023-03-01T19:31:45;8.32;;;5.10;;
47113;SDS011;32867;51.556;6.832;2023-03-01T19:36:46;8.27;;;5.05;;
47113;SDS011;32867;51.556;6.832;2023-03-01T19:41:47;10.05;;;5.38;;
47113;SDS011;32867;51.556;6.832;2023-03-01T19:46:48;9.13;;;5.63;;
47113;SDS011;32867;51.556;6.832;2023-03-01T19:51:50;11.88;;;6.18;;
47113;SDS011;32867;51.556;6.832;2023-03-01T19:56:51;12.30;;;6.53;;
47113;SDS011;32867;51.556;6.832;2023-03-01T20:01:51;8.90;;;5.90;;
47113;SDS011;32867;51.556;6.832;2023-03-01T20:06:52;9.48;;;5.80;;
47113;SDS011;32867;51.556;6.832;2023-03-01T20:11:53;10.48;;;6.10;;
47113;SDS011;32867;51.556;6.832;2023-03-01T20:16:54;10.43;;;5.75;;
47113;SDS011;32867;51.556;6.832;2023-03-01T20:21:54;11.30;;;6.72;;
47113;SDS011;32867;51.556;6.832;2023-03-01T20:26:55;10.25;;;5.68;;
47113;SDS011;32867;51.556;6.832;2023-03-01T20:31:56;9.48;;;5.05;;
47113;SDS011;32867;51.556;6.832;2023-03-01T20:36:56;8.38;;;5.47;;
47113;SDS011;32867;51.556;6.832;2023-03-01T20:41:57;9.23;;;5.40;;
47113;SDS011;32867;51.556;6.832;2023-03-01T20:46:58;8.27;;;5.15;;
47113;SDS011;32867;51.556;6.832;2023-03-01T20:51:59;9.77;;;5.70;;
47113;SDS011;32867;51.556;6.832;2023-03-01T20:56:59;7.53;;;4.65;;
47113;SDS011;32867;51.556;6.832;2023-03-01T21:02:00;9.40;;;5.28;;
47113;SDS011;32867;51.556;6.832;2023-03-01T21:07:00;8.27;;;5.15;;
47113;SDS011;32867;51.556;6.832;2023-03-01T21:12:01;8.13;;;4.90;;
47113;SDS011;32867;51.556;6.832;2023-03-01T21:17:03;9.98;;;4.80;;
47113;SDS011;32867;51.556;6.832;2023-03-01T21:22:03;10.65;;;5.20;;
47113;SDS011;32867;51.556;6.832;2023-03-01T21:27:04;8.55;;;4.93;;
47113;SDS011;32867;51.556;6.832;2023-03-01T21:32:08;8.70;;;5.03;;
47113;SDS011;32867;51.556;6.832;2023-03-01T21:37:11;8.80;;;4.95;;
47113;SDS011;32867;51.556;6.832;2023-03-01T21:42:11;8.68;;;4.95;;
47113;SDS011;32867;51.556;6.832;2023-03-01T21:47:12;8.27;;;5.07;;
47113;SDS011;32867;51.556;6.832;2023-03-01T21:52:13;7.57;;;4.85;;
47113;SDS011;32867;51.556;6.832;2023-03-01T21:57:16;9.13;;;5.53;;
47113;SDS011;32867;51.556;6.832;2023-03-01T22:02:16;8.95;;;5.05;;
47113;SDS011;32867;51.556;6.832;2023-03-01T22:07:17;8.50;;;5.50;;
47113;SDS011;32867;51.556;6.832;2023-03-01T22:12:18;7.38;;;4.85;;
47113;SDS011;32867;51.556;6.832;2023-03-01T22:17:19;7.18;;;4.53;;
47113;SDS011;32867;51.556;6.832;2023-03-01T22:22:20;8.45;;;5.03;;
47113;SDS011;32867;51.556;6.832;2023-03-01T22:27:20;9.05;;;5.53;;
47113;SDS011;32867;51.556;6.832;2023-03-01T22:32:21;9.27;;;5.25;;
47113;SDS011;32867;51.556;6.832;2023-03-01T22:37:22;8.43;;;5.43;;
47113;SDS011;32867;51.556;6.832;2023-03-01T22:42:22;7.45;;;4.93;;
47113;SDS011;32867;51.556;6.832;2023-03-01T22:47:23;9.68;;;5.45;;
47113;SDS011;32867;51.556;6.832;2023-03-01T22:52:24;8.93;;;5.43;;
47113;SDS011;32867;51.556;6.832;2023-03-01T22:57:24;9.32;;;5.43;;
47113;SDS011;32867;51.556;6.832;2023-03-01T23:02:25;8.43;;;5.07;;
47113;SDS011;32867;51.556;6.832;2023-03-01T23:07:26;8.45;;;4.85;;
47113;SDS011;32867;51.556;6.832;2023-03-01T23:12:29;7.72;;;4.72;;
47113;SDS011;32867;51.556;6.832;2023-03-01T23:17:30;7.18;;;4.57;;
47113;SDS011;32867;51.556;6.832;2023-03-01T23:22:31;9.65;;;5.35;;
47113;SDS011;32867;51.556;6.832;2023-03-01T23:27:34;7.63;;;4.72;;
47113;SDS011;32867;51.556;6.832;2023-03-01T23:32:36;9.10;;;4.65;;
47113;SDS011;32867;51.556;6.832;2023-03-01T23:37:39;8.13;;;4.80;;
47113;SDS011;32867;51.556;6.832;2023-03-01T23:42:40;7.85;;;5.05;;
47113;SDS011;32867;51.556;6.832;2023-03-01T23:47:40;9.52;;;5.88;;
47113;SDS011;32867;51.556;6.832;2023-03-01T23:52:43;10.00;;;5.57;;
47113;SDS011;32867;51.556;6.832;2023-03-01T23:57:43;7.78;;;5.05;;
